Time;durP1;ratioP1;P1;durP2;ratioP2;P2;SDS_P1;SDS_P2;PMS_P1;PMS_P2;Temp;Humidity;BMP_temperature;BMP_pressure;BME280_temperature;BME280_humidity;BME280_pressure;Samples;Min_cycle;Max_cycle;Signal;HPM_P1;HPM_P2
2023/06/16 00:02:25;;;;;;;;;;;18.60;40.40;;;;;;5053694;28;20032;-76
2023/06/16 00:04:50;;;;;;;;;;;18.50;40.70;;;;;;5053300;28;19908;-76
2023/06/16 00:07:19;;;;;;;;;;;18.50;40.80;;;;;;5053444;28;20031;-76
2023/06/16 00:09:48;;;;;;;;;;;18.50;40.90;;;;;;5053069;28;19909;-75
2023/06/16 00:12:13;;;;;;;;;;;18.40;41.00;;;;;;5053886;28;20054;-76
2023/06/16 00:14:39;;;;;;;;;;;18.30;41.10;;;;;;5053027;28;20360;-76
2023/06/16 00:17:05;;;;;;;;;;;18.30;41.30;;;;;;5053219;28;20317;-76
2023/06/16 00:19:31;;;;;;;;;;;18.30;41.60;;;;;;5053054;28;19908;-75
2023/06/16 00:21:59;;;;;;;;;;;18.30;41.70;;;;;;5052869;28;19924;-76
2023/06/16 00:24:26;;;;;;;;;;;18.20;42.00;;;;;;5053051;28;19916;-76
2023/06/16 00:26:51;;;;;;;;;;;18.20;42.00;;;;;;5035168;28;19921;-75
2023/06/16 00:29:17;;;;;;;;;;;18.20;42.10;;;;;;5052916;28;20021;-76
2023/06/16 00:31:42;;;;;;;;;;;18.10;42.10;;;;;;5063206;28;19939;-76
2023/06/16 00:34:07;;;;;;;;;;;18.10;42.20;;;;;;5072705;28;19912;-76
2023/06/16 00:36:33;;;;;;;;;;;18.00;42.30;;;;;;5072797;28;20330;-74
2023/06/16 00:38:58;;;;;;;;;;;18.00;42.50;;;;;;5072721;28;20322;-76
2023/06/16 00:41:24;;;;;;;;;;;17.90;42.70;;;;;;5072956;28;19970;-75
2023/06/16 00:43:50;;;;;;;;;;;17.90;42.80;;;;;;5073068;28;19916;-73
2023/06/16 00:46:24;;;;;;;;;;;17.80;42.90;;;;;;5072411;28;19916;-76
2023/06/16 00:48:49;;;;;;;;;;;17.80;43.00;;;;;;5067705;28;19916;-77
2023/06/16 00:51:15;;;;;;;;;;;17.80;43.10;;;;;;5052408;28;19917;-75
2023/06/16 00:53:40;;;;;;;;;;;17.70;43.30;;;;;;5052413;28;20280;-75
2023/06/16 00:56:07;;;;;;;;;;;17.70;43.40;;;;;;5052414;28;20012;-75
2023/06/16 00:58:32;;;;;;;;;;;17.60;43.50;;;;;;5034563;28;19919;-75
2023/06/16 01:00:59;;;;;;;;;;;17.50;43.60;;;;;;5052882;28;20004;-70
2023/06/16 01:03:26;;;;;;;;;;;17.50;43.80;;;;;;5052220;28;19959;-71
2023/06/16 01:05:56;;;;;;;;;;;17.50;43.90;;;;;;5052337;28;19927;-70
2023/06/16 01:08:25;;;;;;;;;;;17.50;43.90;;;;;;5052272;28;19948;-70
2023/06/16 01:11:18;;;;;;;;;;;17.40;44.00;;;;;;5052306;28;19920;-71
2023/06/16 01:14:01;;;;;;;;;;;17.30;44.20;;;;;;5051973;28;19932;-70
2023/06/16 01:16:30;;;;;;;;;;;17.30;44.20;;;;;;5052104;28;20425;-72
2023/06/16 01:18:56;;;;;;;;;;;17.30;44.40;;;;;;5051603;28;19909;-70
2023/06/16 01:21:31;;;;;;;;;;;17.20;44.60;;;;;;5052192;28;19994;-70
2023/06/16 01:24:01;;;;;;;;;;;17.20;44.60;;;;;;5052053;28;20304;-70
2023/06/16 01:26:28;;;;;;;;;;;17.10;44.60;;;;;;5052092;28;19923;-70
2023/06/16 01:28:54;;;;;;;;;;;17.10;44.80;;;;;;5051944;28;20011;-70
2023/06/16 01:31:20;;;;;;;;;;;17.00;44.90;;;;;;5059150;28;19924;-70
2023/06/16 01:33:46;;;;;;;;;;;17.00;45.00;;;;;;5071786;28;20011;-70
2023/06/16 01:36:12;;;;;;;;;;;17.00;45.20;;;;;;5053538;28;19917;-70
2023/06/16 01:38:38;;;;;;;;;;;17.00;45.30;;;;;;5071602;28;19916;-70
2023/06/16 01:41:04;;;;;;;;;;;17.00;45.50;;;;;;5071688;28;19917;-70
2023/06/16 01:43:31;;;;;;;;;;;16.90;45.50;;;;;;5071737;28;20053;-70
2023/06/16 01:45:56;;;;;;;;;;;16.80;45.80;;;;;;5071831;28;19962;-70
2023/06/16 01:48:23;;;;;;;;;;;16.80;45.80;;;;;;5070632;28;19913;-70
2023/06/16 01:50:48;;;;;;;;;;;16.80;46.00;;;;;;5051511;28;20400;-69
2023/06/16 01:53:14;;;;;;;;;;;16.80;46.20;;;;;;5051532;28;19955;-70
2023/06/16 01:55:45;;;;;;;;;;;16.80;46.50;;;;;;5051425;28;20336;-69
2023/06/16 01:58:10;;;;;;;;;;;16.70;46.30;;;;;;5033665;28;20279;-69
2023/06/16 02:00:37;;;;;;;;;;;16.70;46.40;;;;;;5051355;28;19909;-70
2023/06/16 02:03:08;;;;;;;;;;;16.60;46.50;;;;;;5051549;28;19964;-70
2023/06/16 02:05:35;;;;;;;;;;;16.60;46.50;;;;;;5033331;28;19915;-71
2023/06/16 02:08:02;;;;;;;;;;;16.60;46.50;;;;;;5051594;28;20361;-71
2023/06/16 02:10:28;;;;;;;;;;;16.60;46.80;;;;;;5051266;28;19913;-70
2023/06/16 02:12:54;;;;;;;;;;;16.60;47.20;;;;;;5051252;28;20368;-71
2023/06/16 02:15:20;;;;;;;;;;;16.60;47.30;;;;;;5051088;28;20395;-70
2023/06/16 02:17:46;;;;;;;;;;;16.50;47.20;;;;;;5051361;28;19908;-71
2023/06/16 02:20:11;;;;;;;;;;;16.50;47.10;;;;;;5051196;28;19915;-70
2023/06/16 02:22:37;;;;;;;;;;;16.50;46.90;;;;;;5033208;28;19921;-72
2023/06/16 02:25:03;;;;;;;;;;;16.50;46.90;;;;;;5051396;28;19948;-70
2023/06/16 02:27:28;;;;;;;;;;;16.40;46.80;;;;;;5051659;28;19924;-70
2023/06/16 02:29:54;;;;;;;;;;;16.40;46.90;;;;;;5052072;28;19974;-71
2023/06/16 02:32:19;;;;;;;;;;;16.30;47.00;;;;;;5053081;28;20360;-71
2023/06/16 02:34:46;;;;;;;;;;;16.30;47.00;;;;;;5074887;28;19909;-71
2023/06/16 02:37:12;;;;;;;;;;;16.30;47.00;;;;;;5075265;28;19924;-71
2023/06/16 02:39:39;;;;;;;;;;;16.30;47.10;;;;;;5075059;28;19908;-70
2023/06/16 02:42:04;;;;;;;;;;;16.20;47.20;;;;;;5074974;28;19917;-69
2023/06/16 02:44:30;;;;;;;;;;;16.20;47.20;;;;;;5074705;28;19969;-70
2023/06/16 02:46:56;;;;;;;;;;;16.20;47.40;;;;;;5074723;28;20356;-70
2023/06/16 02:49:22;;;;;;;;;;;16.20;47.30;;;;;;5065427;28;19919;-69
2023/06/16 02:51:49;;;;;;;;;;;16.10;47.30;;;;;;5054477;28;20299;-69
2023/06/16 02:54:14;;;;;;;;;;;16.10;47.40;;;;;;5054550;28;20365;-69
2023/06/16 02:56:40;;;;;;;;;;;16.10;47.60;;;;;;5054786;28;19924;-69
2023/06/16 02:59:05;;;;;;;;;;;16.10;47.60;;;;;;5054417;28;19992;-69
2023/06/16 03:01:30;;;;;;;;;;;16.00;47.60;;;;;;5054548;28;19925;-68
2023/06/16 03:03:58;;;;;;;;;;;16.00;47.90;;;;;;5054301;28;20246;-69
2023/06/16 03:06:23;;;;;;;;;;;16.00;48.10;;;;;;5054474;28;19924;-69
2023/06/16 03:08:49;;;;;;;;;;;16.00;48.10;;;;;;5054292;28;20291;-70
2023/06/16 03:11:15;;;;;;;;;;;16.10;48.40;;;;;;5054258;28;19962;-70
2023/06/16 03:13:41;;;;;;;;;;;16.10;48.30;;;;;;5054337;28;20376;-70
2023/06/16 03:16:07;;;;;;;;;;;16.00;48.10;;;;;;5054255;28;19917;-70
2023/06/16 03:18:33;;;;;;;;;;;16.00;48.10;;;;;;5054228;28;20541;-70
2023/06/16 03:20:58;;;;;;;;;;;16.00;48.10;;;;;;5054074;28;20015;-70
2023/06/16 03:23:24;;;;;;;;;;;16.00;48.00;;;;;;5054449;28;19922;-76
2023/06/16 03:25:50;;;;;;;;;;;16.00;48.10;;;;;;5036173;28;20368;-75
2023/06/16 03:28:15;;;;;;;;;;;16.00;48.30;;;;;;5054325;28;19960;-76
2023/06/16 03:30:41;;;;;;;;;;;15.90;48.40;;;;;;5056056;28;19917;-76
2023/06/16 03:33:06;;;;;;;;;;;15.90;48.50;;;;;;5073997;28;19955;-76
2023/06/16 03:35:32;;;;;;;;;;;16.00;48.80;;;;;;5073991;28;19990;-76
2023/06/16 03:37:57;;;;;;;;;;;16.00;48.60;;;;;;5073763;28;19913;-74
2023/06/16 03:40:23;;;;;;;;;;;16.00;48.80;;;;;;5073254;28;19908;-76
2023/06/16 03:42:48;;;;;;;;;;;16.00;48.70;;;;;;5072555;28;19923;-75
2023/06/16 03:45:13;;;;;;;;;;;16.00;48.80;;;;;;5073926;28;19916;-76
2023/06/16 03:47:39;;;;;;;;;;;16.10;48.80;;;;;;5074065;28;19924;-75
2023/06/16 03:50:05;;;;;;;;;;;16.10;48.80;;;;;;5058946;28;20315;-77
2023/06/16 03:52:31;;;;;;;;;;;16.10;49.20;;;;;;5053814;28;19916;-76
2023/06/16 03:54:57;;;;;;;;;;;16.20;49.30;;;;;;5053382;28;19916;-76
2023/06/16 03:57:22;;;;;;;;;;;16.40;49.40;;;;;;5053966;28;19921;-75
2023/06/16 03:59:47;;;;;;;;;;;16.40;49.40;;;;;;5053380;28;19919;-75
2023/06/16 04:02:14;;;;;;;;;;;16.60;49.40;;;;;;5053933;28;20291;-76
2023/06/16 04:04:42;;;;;;;;;;;16.70;49.40;;;;;;5053244;28;19984;-75
2023/06/16 04:07:09;;;;;;;;;;;16.80;49.30;;;;;;5053328;28;19921;-75
2023/06/16 04:09:34;;;;;;;;;;;17.00;49.30;;;;;;5053923;28;19908;-75
2023/06/16 04:12:00;;;;;;;;;;;17.00;49.10;;;;;;5051962;28;19917;-76
2023/06/16 04:14:25;;;;;;;;;;;17.20;49.10;;;;;;5053251;28;20003;-76
2023/06/16 04:16:51;;;;;;;;;;;17.40;49.30;;;;;;5052828;28;20396;-75
2023/06/16 04:19:19;;;;;;;;;;;17.60;49.40;;;;;;5052951;28;19920;-76
2023/06/16 04:21:45;;;;;;;;;;;17.90;49.50;;;;;;5053075;28;19917;-75
2023/06/16 04:24:10;;;;;;;;;;;18.20;49.40;;;;;;5044013;28;20295;-76
2023/06/16 04:26:37;;;;;;;;;;;18.50;49.10;;;;;;5053232;28;20400;-77
2023/06/16 04:29:03;;;;;;;;;;;18.70;48.60;;;;;;5053680;28;19919;-76
2023/06/16 04:31:31;;;;;;;;;;;18.70;48.20;;;;;;5047161;28;19978;-76
2023/06/16 04:33:58;;;;;;;;;;;18.70;47.90;;;;;;5039099;28;19920;-76
2023/06/16 04:36:25;;;;;;;;;;;18.80;47.70;;;;;;5045749;28;19923;-75
2023/06/16 04:38:51;;;;;;;;;;;18.80;47.50;;;;;;5051347;28;20042;-75
2023/06/16 04:41:16;;;;;;;;;;;18.80;47.30;;;;;;5052233;28;20016;-75
2023/06/16 04:43:41;;;;;;;;;;;18.80;47.20;;;;;;5052281;28;19924;-75
2023/06/16 04:46:07;;;;;;;;;;;18.90;47.20;;;;;;5052622;28;19923;-76
2023/06/16 04:48:33;;;;;;;;;;;18.90;47.00;;;;;;5052247;28;19909;-75
2023/06/16 04:50:58;;;;;;;;;;;19.00;47.00;;;;;;5052375;28;19923;-75
2023/06/16 04:53:24;;;;;;;;;;;19.10;47.20;;;;;;5035480;28;20011;-75
2023/06/16 04:55:49;;;;;;;;;;;19.50;47.90;;;;;;5036622;28;19963;-76
2023/06/16 04:58:15;;;;;;;;;;;20.00;48.20;;;;;;5051717;28;19997;-76
2023/06/16 05:00:40;;;;;;;;;;;20.60;48.20;;;;;;5052186;28;19924;-77
2023/06/16 05:03:06;;;;;;;;;;;21.30;47.90;;;;;;5052058;28;19913;-76
2023/06/16 05:05:32;;;;;;;;;;;22.00;47.10;;;;;;5051977;28;19913;-77
2023/06/16 05:07:58;;;;;;;;;;;22.70;46.40;;;;;;5050753;28;20285;-74
2023/06/16 05:10:23;;;;;;;;;;;23.40;45.60;;;;;;5052293;28;19915;-76
2023/06/16 05:12:49;;;;;;;;;;;24.00;44.10;;;;;;5052248;28;19948;-75
2023/06/16 05:15:14;;;;;;;;;;;24.60;42.90;;;;;;5055279;28;19909;-76
2023/06/16 05:17:39;;;;;;;;;;;25.10;41.90;;;;;;5055173;28;20028;-80
2023/06/16 05:20:06;;;;;;;;;;;25.70;41.30;;;;;;5052580;28;19913;-79
2023/06/16 05:22:31;;;;;;;;;;;26.10;40.10;;;;;;5051361;28;20051;-79
2023/06/16 05:24:57;;;;;;;;;;;26.40;39.00;;;;;;5051887;28;19948;-79
2023/06/16 05:27:23;;;;;;;;;;;26.70;38.60;;;;;;5048532;28;20382;-79
2023/06/16 05:29:50;;;;;;;;;;;26.90;38.10;;;;;;5047023;28;20015;-78
2023/06/16 05:32:15;;;;;;;;;;;27.20;38.00;;;;;;5052298;28;20358;-79
2023/06/16 05:34:41;;;;;;;;;;;27.50;37.40;;;;;;5053001;28;19916;-78
2023/06/16 05:37:06;;;;;;;;;;;27.90;37.00;;;;;;5051061;28;19970;-79
2023/06/16 05:39:31;;;;;;;;;;;28.00;35.90;;;;;;5049796;28;20311;-79
2023/06/16 05:41:57;;;;;;;;;;;28.10;35.20;;;;;;5048705;28;19924;-78
2023/06/16 05:44:22;;;;;;;;;;;28.10;35.10;;;;;;5033733;28;20314;-79
2023/06/16 05:46:48;;;;;;;;;;;28.10;35.00;;;;;;5051267;28;19921;-79
2023/06/16 05:49:14;;;;;;;;;;;28.20;34.90;;;;;;5048558;28;19940;-79
2023/06/16 05:51:39;;;;;;;;;;;28.10;34.20;;;;;;5045449;28;20357;-78
2023/06/16 05:54:05;;;;;;;;;;;27.90;34.00;;;;;;5045585;28;19919;-78
2023/06/16 05:56:30;;;;;;;;;;;27.80;34.00;;;;;;5053925;28;19923;-78
2023/06/16 05:58:56;;;;;;;;;;;27.60;34.20;;;;;;5047566;28;19920;-79
2023/06/16 06:01:21;;;;;;;;;;;27.50;34.40;;;;;;5050359;28;19968;-78
2023/06/16 06:03:47;;;;;;;;;;;27.50;34.80;;;;;;5027109;28;19952;-79
2023/06/16 06:06:12;;;;;;;;;;;27.80;34.90;;;;;;5038255;28;19917;-79
2023/06/16 06:08:39;;;;;;;;;;;27.90;34.40;;;;;;5046171;28;19913;-79
2023/06/16 06:11:06;;;;;;;;;;;28.00;33.90;;;;;;5054804;28;20011;-78
2023/06/16 06:13:32;;;;;;;;;;;27.90;33.20;;;;;;5054023;28;19909;-78
2023/06/16 06:15:58;;;;;;;;;;;27.70;33.00;;;;;;5038799;28;20266;-75
2023/06/16 06:18:23;;;;;;;;;;;27.60;33.20;;;;;;5050848;28;19917;-78
2023/06/16 06:20:49;;;;;;;;;;;27.50;33.30;;;;;;5045485;28;19951;-77
2023/06/16 06:23:15;;;;;;;;;;;27.50;33.70;;;;;;5052438;28;20054;-79
2023/06/16 06:25:42;;;;;;;;;;;27.70;33.70;;;;;;5053216;28;20402;-78
2023/06/16 06:28:08;;;;;;;;;;;27.80;33.60;;;;;;5050090;28;20280;-78
2023/06/16 06:30:33;;;;;;;;;;;28.00;33.60;;;;;;5036939;28;20377;-77
2023/06/16 06:33:00;;;;;;;;;;;28.30;33.30;;;;;;5054700;28;19908;-78
2023/06/16 06:35:25;;;;;;;;;;;28.70;33.50;;;;;;5054534;28;19912;-78
2023/06/16 06:37:51;;;;;;;;;;;29.10;32.60;;;;;;5051024;28;19919;-79
2023/06/16 06:40:17;;;;;;;;;;;29.60;32.40;;;;;;5054573;28;19909;-78
2023/06/16 06:42:42;;;;;;;;;;;30.10;32.20;;;;;;5054685;28;19998;-79
2023/06/16 06:45:10;;;;;;;;;;;30.70;32.00;;;;;;5054484;28;19917;-79
2023/06/16 06:47:36;;;;;;;;;;;31.30;31.30;;;;;;5051675;28;19925;-79
2023/06/16 06:50:02;;;;;;;;;;;32.10;30.80;;;;;;5054399;28;19915;-77
2023/06/16 06:52:28;;;;;;;;;;;32.80;30.20;;;;;;5054758;28;19917;-77
2023/06/16 06:54:55;;;;;;;;;;;33.40;29.20;;;;;;5054143;28;19912;-76
2023/06/16 06:57:20;;;;;;;;;;;33.80;28.10;;;;;;5052255;28;19917;-74
2023/06/16 06:59:49;;;;;;;;;;;34.10;27.40;;;;;;5032980;28;19909;-77
2023/06/16 07:02:16;;;;;;;;;;;34.00;27.00;;;;;;5048571;28;19943;-78
2023/06/16 07:04:42;;;;;;;;;;;33.90;26.90;;;;;;5054076;28;19912;-74
2023/06/16 07:07:08;;;;;;;;;;;33.80;26.80;;;;;;5053524;28;19917;-78
2023/06/16 07:09:34;;;;;;;;;;;33.70;26.60;;;;;;5050496;28;19909;-77
2023/06/16 07:12:00;;;;;;;;;;;33.70;27.00;;;;;;5053955;28;19917;-78
2023/06/16 07:14:26;;;;;;;;;;;33.80;27.00;;;;;;5050152;28;20407;-78
2023/06/16 07:16:52;;;;;;;;;;;33.90;27.00;;;;;;5044424;28;19923;-77
2023/06/16 07:19:17;;;;;;;;;;;34.20;27.20;;;;;;5050681;28;20295;-78
2023/06/16 07:21:43;;;;;;;;;;;34.30;26.80;;;;;;5035932;28;20349;-77
2023/06/16 07:24:08;;;;;;;;;;;34.40;26.20;;;;;;5053737;28;19924;-77
2023/06/16 07:26:33;;;;;;;;;;;34.40;26.10;;;;;;5053764;28;20365;-77
2023/06/16 07:29:00;;;;;;;;;;;34.40;26.00;;;;;;5050348;28;19915;-77
2023/06/16 07:31:25;;;;;;;;;;;34.70;26.20;;;;;;5054204;28;20275;-77
2023/06/16 07:33:50;;;;;;;;;;;35.00;25.90;;;;;;5053568;28;19996;-76
2023/06/16 07:36:16;;;;;;;;;;;35.20;25.90;;;;;;5053700;28;19923;-77
2023/06/16 07:38:42;;;;;;;;;;;35.60;25.30;;;;;;5050663;28;19913;-76
2023/06/16 07:41:07;;;;;;;;;;;35.80;25.00;;;;;;5053380;28;19923;-77
2023/06/16 07:43:33;;;;;;;;;;;36.20;25.10;;;;;;5038879;28;19916;-77
2023/06/16 07:45:58;;;;;;;;;;;36.60;24.40;;;;;;5059296;28;19967;-76
2023/06/16 07:48:24;;;;;;;;;;;36.80;24.10;;;;;;5049988;28;20257;-77
2023/06/16 07:50:50;;;;;;;;;;;37.00;23.70;;;;;;5052965;28;19928;-77
2023/06/16 07:53:15;;;;;;;;;;;37.10;23.60;;;;;;5053979;28;19915;-71
2023/06/16 07:55:41;;;;;;;;;;;37.30;23.60;;;;;;5053181;28;19967;-77
2023/06/16 07:58:06;;;;;;;;;;;37.60;23.50;;;;;;5050176;28;19986;-77
2023/06/16 08:00:32;;;;;;;;;;;37.80;23.20;;;;;;5052453;28;20426;-77
2023/06/16 08:02:57;;;;;;;;;;;37.90;22.80;;;;;;5052958;28;19920;-77
2023/06/16 08:05:23;;;;;;;;;;;37.90;22.80;;;;;;5052981;28;19908;-76
2023/06/16 08:07:48;;;;;;;;;;;38.00;22.80;;;;;;5049654;28;19913;-76
2023/06/16 08:10:19;;;;;;;;;;;37.90;22.60;;;;;;5052867;28;19967;-76
2023/06/16 08:12:45;;;;;;;;;;;38.10;22.50;;;;;;5051257;28;19916;-76
2023/06/16 08:15:10;;;;;;;;;;;38.30;22.60;;;;;;5052661;28;19909;-76
2023/06/16 08:17:36;;;;;;;;;;;38.70;22.60;;;;;;5050514;28;20565;-74
2023/06/16 08:20:04;;;;;;;;;;;39.20;22.50;;;;;;5050416;28;19974;-77
2023/06/16 08:22:29;;;;;;;;;;;39.70;21.80;;;;;;5052963;28;19916;-76
2023/06/16 08:24:55;;;;;;;;;;;39.90;21.50;;;;;;5053115;28;19912;-76
2023/06/16 08:27:21;;;;;;;;;;;40.30;21.60;;;;;;5051209;28;20003;-76
2023/06/16 08:29:47;;;;;;;;;;;40.70;21.30;;;;;;5050871;28;19948;-77
2023/06/16 08:32:13;;;;;;;;;;;41.20;20.80;;;;;;5053182;28;19928;-77
2023/06/16 08:34:38;;;;;;;;;;;41.50;20.30;;;;;;5052640;28;19913;-76
2023/06/16 08:37:05;;;;;;;;;;;41.70;19.50;;;;;;5052532;28;19924;-76
2023/06/16 08:39:30;;;;;;;;;;;41.80;19.30;;;;;;5049603;28;19909;-76
2023/06/16 08:41:56;;;;;;;;;;;41.80;19.40;;;;;;5052537;28;19916;-77
2023/06/16 08:44:21;;;;;;;;;;;42.20;19.30;;;;;;5051929;28;19917;-76
2023/06/16 08:46:48;;;;;;;;;;;42.30;18.40;;;;;;5049952;28;20387;-76
2023/06/16 08:49:15;;;;;;;;;;;42.30;18.10;;;;;;5045314;28;19983;-77
2023/06/16 08:51:47;;;;;;;;;;;42.30;18.30;;;;;;5043547;28;20324;-76
2023/06/16 08:54:13;;;;;;;;;;;42.70;18.40;;;;;;5042776;28;19919;-77
2023/06/16 08:56:39;;;;;;;;;;;43.30;18.50;;;;;;5042952;28;19920;-77
2023/06/16 08:59:05;;;;;;;;;;;43.60;17.90;;;;;;5051225;28;19964;-75
2023/06/16 09:01:33;;;;;;;;;;;43.80;17.80;;;;;;5043841;28;19917;-75
2023/06/16 09:03:59;;;;;;;;;;;43.70;17.70;;;;;;5040961;28;19920;-75
2023/06/16 09:06:25;;;;;;;;;;;43.30;17.50;;;;;;5048655;28;19920;-75
2023/06/16 09:08:50;;;;;;;;;;;43.10;17.60;;;;;;5042982;28;19935;-75
2023/06/16 09:11:25;;;;;;;;;;;42.80;17.60;;;;;;5050143;28;19916;-75
2023/06/16 09:13:55;;;;;;;;;;;42.50;17.50;;;;;;5049183;28;19913;-75
2023/06/16 09:16:21;;;;;;;;;;;42.20;17.80;;;;;;5031473;28;19923;-75
2023/06/16 09:18:48;;;;;;;;;;;42.20;18.00;;;;;;5030616;28;20004;-75
2023/06/16 09:21:18;;;;;;;;;;;42.10;17.60;;;;;;5031651;28;19964;-75
2023/06/16 09:23:43;;;;;;;;;;;41.90;17.50;;;;;;5031601;28;19917;-75
2023/06/16 09:26:12;;;;;;;;;;;41.90;17.70;;;;;;5051534;28;19942;-75
2023/06/16 09:28:39;;;;;;;;;;;42.10;17.40;;;;;;5052019;28;19916;-75
2023/06/16 09:31:05;;;;;;;;;;;42.10;17.00;;;;;;5050793;28;19979;-68
2023/06/16 09:33:31;;;;;;;;;;;42.00;16.80;;;;;;5050391;28;19909;-69
2023/06/16 09:35:57;;;;;;;;;;;41.80;17.00;;;;;;5053533;28;20284;-69
2023/06/16 09:38:23;;;;;;;;;;;41.50;17.00;;;;;;5033545;28;19992;-77
2023/06/16 09:40:48;;;;;;;;;;;41.30;17.50;;;;;;5048614;28;19924;-75
2023/06/16 09:43:14;;;;;;;;;;;41.50;17.70;;;;;;5051653;28;19923;-76
2023/06/16 09:45:40;;;;;;;;;;;41.80;17.70;;;;;;5051022;28;20368;-75
2023/06/16 09:48:08;;;;;;;;;;;42.20;17.60;;;;;;5051660;28;20376;-76
2023/06/16 09:50:35;;;;;;;;;;;42.60;17.00;;;;;;5050927;28;19916;-73
2023/06/16 09:53:03;;;;;;;;;;;42.70;16.90;;;;;;5049335;28;20292;-76
2023/06/16 09:55:28;;;;;;;;;;;42.80;16.80;;;;;;5050464;28;19909;-76
2023/06/16 09:57:54;;;;;;;;;;;42.90;16.80;;;;;;5051125;28;20298;-76
2023/06/16 10:00:20;;;;;;;;;;;43.20;17.00;;;;;;5050809;28;20353;-76
2023/06/16 10:02:46;;;;;;;;;;;43.70;16.70;;;;;;5047964;28;20002;-76
2023/06/16 10:05:18;;;;;;;;;;;43.70;16.20;;;;;;5050973;28;19909;-77
2023/06/16 10:07:45;;;;;;;;;;;43.60;16.40;;;;;;5051346;28;20328;-76
2023/06/16 10:10:11;;;;;;;;;;;43.30;16.30;;;;;;5051075;28;19909;-77
2023/06/16 10:12:37;;;;;;;;;;;43.10;16.30;;;;;;5047864;28;19917;-76
2023/06/16 10:15:03;;;;;;;;;;;42.60;16.20;;;;;;5050909;28;19917;-78
2023/06/16 10:17:32;;;;;;;;;;;41.80;16.80;;;;;;5052102;28;19916;-76
2023/06/16 10:19:57;;;;;;;;;;;41.30;17.10;;;;;;5051398;28;19959;-75
2023/06/16 10:22:24;;;;;;;;;;;40.80;17.30;;;;;;5049003;28;19920;-75
2023/06/16 10:24:50;;;;;;;;;;;40.40;17.70;;;;;;5043639;28;20008;-76
2023/06/16 10:27:19;;;;;;;;;;;40.10;18.00;;;;;;5051433;28;20375;-76
2023/06/16 10:29:50;;;;;;;;;;;39.90;18.30;;;;;;5051311;28;20416;-75
2023/06/16 10:32:16;;;;;;;;;;;39.90;18.60;;;;;;5050024;28;19917;-76
2023/06/16 10:34:56;;;;;;;;;;;39.90;18.60;;;;;;5052464;28;19996;-76
2023/06/16 10:37:23;;;;;;;;;;;40.10;18.60;;;;;;5035093;28;19917;-77
2023/06/16 10:39:48;;;;;;;;;;;40.20;18.40;;;;;;5052503;28;19909;-76
2023/06/16 10:42:14;;;;;;;;;;;40.20;18.60;;;;;;5032974;28;19923;-76
2023/06/16 10:44:40;;;;;;;;;;;40.20;18.30;;;;;;5052786;28;19917;-76
2023/06/16 10:47:08;;;;;;;;;;;40.20;18.10;;;;;;5054746;28;19917;-76
2023/06/16 10:49:47;;;;;;;;;;;40.30;18.10;;;;;;5052272;28;19909;-77
2023/06/16 10:52:16;;;;;;;;;;;40.40;18.40;;;;;;5053300;28;19927;-77
2023/06/16 10:54:48;;;;;;;;;;;40.50;17.90;;;;;;5056503;28;19962;-77
2023/06/16 10:57:14;;;;;;;;;;;40.30;17.80;;;;;;5056876;28;19917;-77
2023/06/16 11:00:07;;;;;;;;;;;40.20;17.40;;;;;;5055330;28;19968;-76
2023/06/16 11:02:35;;;;;;;;;;;39.80;17.50;;;;;;5048376;28;19991;-76
2023/06/16 11:05:10;;;;;;;;;;;39.70;18.10;;;;;;5055544;28;19963;-76
2023/06/16 11:07:42;;;;;;;;;;;40.00;17.90;;;;;;5056754;28;19920;-76
2023/06/16 11:10:15;;;;;;;;;;;40.50;17.70;;;;;;5055391;28;19909;-77
2023/06/16 11:12:41;;;;;;;;;;;40.70;17.50;;;;;;5049000;28;20358;-77
2023/06/16 11:15:07;;;;;;;;;;;40.90;17.50;;;;;;5054296;28;19963;-75
2023/06/16 11:17:32;;;;;;;;;;;40.80;16.70;;;;;;5054834;28;19921;-77
2023/06/16 11:19:59;;;;;;;;;;;40.80;15.90;;;;;;5054123;28;19916;-76
2023/06/16 11:22:28;;;;;;;;;;;40.50;15.90;;;;;;5051986;28;20288;-76
2023/06/16 11:24:54;;;;;;;;;;;40.20;16.40;;;;;;5053922;28;19991;-76
2023/06/16 11:27:20;;;;;;;;;;;40.10;16.80;;;;;;5054905;28;20426;-76
2023/06/16 11:29:47;;;;;;;;;;;40.10;16.80;;;;;;5054263;28;19908;-76
2023/06/16 11:32:14;;;;;;;;;;;39.90;17.10;;;;;;5052218;28;20542;-76
2023/06/16 11:34:40;;;;;;;;;;;39.90;17.20;;;;;;5054185;28;19909;-76
2023/06/16 11:37:05;;;;;;;;;;;40.00;17.30;;;;;;5054348;28;19917;-76
2023/06/16 11:39:40;;;;;;;;;;;39.90;17.10;;;;;;5036350;28;19920;-76
2023/06/16 11:42:10;;;;;;;;;;;39.80;17.30;;;;;;5045410;28;20029;-73
2023/06/16 11:44:36;;;;;;;;;;;39.70;17.60;;;;;;5055260;28;19924;-74
2023/06/16 11:47:01;;;;;;;;;;;39.70;17.70;;;;;;5055663;28;20291;-73
2023/06/16 11:49:27;;;;;;;;;;;39.70;17.40;;;;;;5057082;28;20295;-73
2023/06/16 11:51:53;;;;;;;;;;;39.70;17.40;;;;;;5051703;28;19927;-73
2023/06/16 11:54:20;;;;;;;;;;;39.60;17.50;;;;;;5052484;28;19909;-73
2023/06/16 11:56:48;;;;;;;;;;;39.60;17.60;;;;;;5052620;28;20356;-73
2023/06/16 11:59:13;;;;;;;;;;;39.60;17.80;;;;;;5053994;28;19912;-73
2023/06/16 12:01:39;;;;;;;;;;;39.70;17.60;;;;;;5050258;28;19967;-73
2023/06/16 12:04:05;;;;;;;;;;;39.50;17.70;;;;;;5053397;28;19913;-73
2023/06/16 12:06:31;;;;;;;;;;;39.50;17.70;;;;;;5053727;28;19917;-70
2023/06/16 12:08:56;;;;;;;;;;;39.50;17.90;;;;;;5053044;28;20436;-69
2023/06/16 12:11:27;;;;;;;;;;;39.30;18.00;;;;;;5050054;28;20380;-68
2023/06/16 12:13:54;;;;;;;;;;;39.50;18.00;;;;;;5052927;28;20285;-69
2023/06/16 12:16:20;;;;;;;;;;;39.10;18.20;;;;;;5034981;28;19920;-69
2023/06/16 12:18:48;;;;;;;;;;;39.00;18.60;;;;;;5052840;28;20003;-70
2023/06/16 12:21:14;;;;;;;;;;;38.70;18.60;;;;;;5016489;28;19925;-72
2023/06/16 12:23:40;;;;;;;;;;;38.20;19.10;;;;;;5053031;28;19920;-70
2023/06/16 12:26:05;;;;;;;;;;;37.70;19.50;;;;;;5032958;28;19917;-70
2023/06/16 12:28:31;;;;;;;;;;;37.30;20.00;;;;;;5015417;28;20004;-70
2023/06/16 12:31:00;;;;;;;;;;;37.00;20.20;;;;;;5032238;28;19970;-70
2023/06/16 12:33:25;;;;;;;;;;;36.70;20.70;;;;;;5053033;28;19951;-69
2023/06/16 12:35:52;;;;;;;;;;;36.30;21.10;;;;;;5052227;28;19921;-70
2023/06/16 12:38:29;;;;;;;;;;;36.00;21.50;;;;;;5053005;28;19909;-70
2023/06/16 12:40:54;;;;;;;;;;;35.70;21.90;;;;;;5050745;28;19974;-72
2023/06/16 12:43:24;;;;;;;;;;;35.30;22.00;;;;;;5051815;28;19928;-71
2023/06/16 12:45:50;;;;;;;;;;;35.00;21.70;;;;;;5052398;28;19923;-71
2023/06/16 12:48:15;;;;;;;;;;;34.70;21.80;;;;;;5052508;28;19959;-71
2023/06/16 12:50:41;;;;;;;;;;;34.70;21.90;;;;;;5051206;28;20026;-72
2023/06/16 12:53:06;;;;;;;;;;;34.60;22.30;;;;;;5050663;28;19908;-70
2023/06/16 12:55:31;;;;;;;;;;;34.60;22.20;;;;;;5052685;28;19916;-71
2023/06/16 12:57:57;;;;;;;;;;;34.50;22.00;;;;;;5052497;28;19909;-71
2023/06/16 13:00:22;;;;;;;;;;;34.30;22.30;;;;;;5052186;28;19919;-71
2023/06/16 13:02:48;;;;;;;;;;;34.10;22.50;;;;;;5049151;28;19913;-69
2023/06/16 13:05:13;;;;;;;;;;;34.00;22.90;;;;;;5052091;28;19909;-70
2023/06/16 13:07:39;;;;;;;;;;;34.10;22.80;;;;;;5052778;28;19967;-69
2023/06/16 13:10:04;;;;;;;;;;;34.00;23.00;;;;;;5052104;28;19909;-69
2023/06/16 13:12:30;;;;;;;;;;;34.10;23.30;;;;;;5049787;28;19923;-69
2023/06/16 13:14:55;;;;;;;;;;;34.30;23.20;;;;;;5051506;28;20383;-71
2023/06/16 13:17:21;;;;;;;;;;;34.50;22.70;;;;;;5034385;28;20355;-70
2023/06/16 13:19:46;;;;;;;;;;;34.30;22.70;;;;;;5034141;28;20007;-72
2023/06/16 13:22:12;;;;;;;;;;;34.10;22.80;;;;;;5040695;28;20019;-72
2023/06/16 13:24:37;;;;;;;;;;;33.90;22.80;;;;;;5062705;28;19913;-71
2023/06/16 13:27:03;;;;;;;;;;;34.10;23.10;;;;;;5052483;28;19927;-70
2023/06/16 13:29:28;;;;;;;;;;;34.40;22.90;;;;;;5051785;28;20385;-70
2023/06/16 13:31:54;;;;;;;;;;;34.30;22.70;;;;;;5031889;28;19940;-70
2023/06/16 13:34:19;;;;;;;;;;;34.10;23.00;;;;;;5051671;28;19916;-70
2023/06/16 13:36:45;;;;;;;;;;;33.90;23.30;;;;;;5052063;28;19927;-70
2023/06/16 13:39:10;;;;;;;;;;;33.80;23.60;;;;;;5033845;28;19923;-70
2023/06/16 13:41:36;;;;;;;;;;;33.80;23.80;;;;;;5048664;28;20384;-70
2023/06/16 13:44:01;;;;;;;;;;;34.00;24.00;;;;;;5051427;28;19920;-71
2023/06/16 13:46:29;;;;;;;;;;;34.20;24.10;;;;;;5051328;28;21375;-70
2023/06/16 13:48:54;;;;;;;;;;;34.60;23.40;;;;;;5033582;28;20288;-72
2023/06/16 13:51:20;;;;;;;;;;;35.00;22.60;;;;;;5048817;28;19932;-71
2023/06/16 13:53:45;;;;;;;;;;;35.20;21.60;;;;;;5051438;28;19909;-71
2023/06/16 13:56:11;;;;;;;;;;;35.00;21.70;;;;;;5051786;28;20383;-70
2023/06/16 13:58:36;;;;;;;;;;;35.00;22.10;;;;;;5051761;28;19908;-71
2023/06/16 14:01:03;;;;;;;;;;;35.20;22.00;;;;;;5032118;28;20580;-72
2023/06/16 14:03:28;;;;;;;;;;;35.00;21.90;;;;;;5050349;28;19917;-70
2023/06/16 14:05:57;;;;;;;;;;;34.70;22.00;;;;;;5051368;28;19916;-71
2023/06/16 14:08:23;;;;;;;;;;;34.30;22.30;;;;;;5051695;28;20060;-72
2023/06/16 14:10:50;;;;;;;;;;;34.20;22.70;;;;;;5049685;28;19987;-71
2023/06/16 14:13:17;;;;;;;;;;;34.00;22.90;;;;;;5048092;28;19962;-71